createdAt,value
2023-03-24T00:00:38.647Z,99.20
2023-03-24T00:04:00.302Z,98.70
2023-03-24T00:07:21.982Z,98.50
2023-03-24T00:10:45.710Z,98.90
2023-03-24T00:14:07.401Z,99.20
2023-03-24T00:17:30.407Z,99.30
2023-03-24T00:20:52.244Z,99.10
2023-03-24T00:24:13.839Z,98.60
2023-03-24T00:27:35.434Z,98.30
2023-03-24T00:30:57.277Z,98.10
2023-03-24T00:34:20.325Z,97.50
2023-03-24T00:37:42.252Z,97.50
2023-03-24T00:41:05.060Z,97.70
2023-03-24T00:44:32.578Z,97.90
2023-03-24T00:51:53.887Z,98.40
2023-03-24T00:55:15.764Z,98.60
2023-03-24T00:58:38.850Z,98.80
2023-03-24T01:02:04.484Z,99.00
2023-03-24T01:05:28.636Z,99.20
2023-03-24T01:08:55.759Z,99.10
2023-03-24T01:12:18.919Z,98.90
2023-03-24T01:15:41.992Z,98.70
2023-03-24T01:19:08.552Z,98.80
2023-03-24T01:22:30.700Z,98.70
2023-03-24T01:25:56.122Z,98.80
2023-03-24T01:29:18.376Z,98.80
2023-03-24T01:32:40.554Z,99.00
2023-03-24T01:36:02.337Z,99.10
2023-03-24T01:39:25.801Z,99.10
2023-03-24T01:42:50.541Z,99.00
2023-03-24T01:46:17.049Z,98.90
2023-03-24T01:49:40.334Z,99.00
2023-03-24T01:53:02.168Z,98.90
2023-03-24T01:56:24.082Z,98.90
2023-03-24T01:59:48.480Z,98.90
2023-03-24T02:03:12.640Z,98.90
2023-03-24T02:06:36.319Z,99.00
2023-03-24T02:09:57.932Z,99.30
2023-03-24T02:13:22.130Z,99.30
2023-03-24T02:17:02.983Z,99.00
2023-03-24T02:20:30.648Z,98.80
2023-03-24T02:24:09.376Z,98.70
2023-03-24T02:27:44.157Z,98.70
2023-03-24T02:31:24.514Z,98.30
2023-03-24T02:34:55.426Z,97.90
2023-03-24T02:38:23.325Z,97.70
2023-03-24T02:41:53.642Z,97.70
2023-03-24T02:45:20.303Z,97.60
2023-03-24T02:48:47.502Z,97.40
2023-03-24T02:52:17.037Z,97.30
2023-03-24T02:55:45.784Z,96.80
2023-03-24T02:59:12.590Z,96.00
2023-03-24T03:02:39.439Z,95.20
2023-03-24T03:06:02.882Z,94.90
2023-03-24T03:09:28.160Z,94.60
2023-03-24T03:12:54.626Z,94.50
2023-03-24T03:16:21.308Z,94.70
2023-03-24T03:19:45.930Z,94.80
2023-03-24T03:23:15.360Z,94.60
2023-03-24T03:26:41.962Z,94.50
2023-03-24T03:30:10.146Z,95.20
2023-03-24T03:33:40.570Z,95.60
2023-03-24T03:37:05.168Z,95.80
2023-03-24T03:40:33.308Z,96.00
2023-03-24T03:43:56.786Z,96.20
2023-03-24T03:47:25.938Z,96.30
2023-03-24T03:50:55.255Z,96.20
2023-03-24T03:54:25.869Z,96.30
2023-03-24T03:57:47.916Z,96.20
2023-03-24T04:01:11.117Z,96.00
2023-03-24T04:04:53.292Z,96.20
2023-03-24T04:08:25.774Z,96.20
2023-03-24T04:11:54.939Z,96.00
2023-03-24T04:15:34.232Z,96.20
2023-03-24T04:19:03.459Z,96.20
2023-03-24T04:22:27.107Z,96.20
2023-03-24T04:25:53.296Z,96.50
2023-03-24T04:29:16.776Z,96.60
2023-03-24T04:32:45.654Z,96.30
2023-03-24T04:36:12.549Z,96.10
2023-03-24T04:39:36.763Z,96.00
2023-03-24T04:43:01.790Z,95.90
2023-03-24T04:46:24.081Z,95.80
2023-03-24T04:49:45.692Z,95.50
2023-03-24T04:53:11.701Z,95.40
2023-03-24T04:56:42.758Z,95.30
2023-03-24T05:00:07.499Z,95.10
2023-03-24T05:03:30.946Z,95.10
2023-03-24T05:06:52.662Z,95.20
2023-03-24T05:10:14.455Z,95.40
2023-03-24T05:13:45.877Z,95.30
2023-03-24T05:17:09.662Z,95.50
2023-03-24T05:20:31.551Z,95.50
2023-03-24T05:23:53.195Z,95.90
2023-03-24T05:27:16.529Z,96.10
2023-03-24T05:30:38.165Z,96.80
2023-03-24T05:34:01.180Z,97.50
2023-03-24T05:37:22.800Z,98.40
2023-03-24T05:40:44.406Z,99.40
2023-03-24T05:44:06.009Z,99.90
2023-03-24T05:47:27.758Z,99.90
2023-03-24T05:50:51.477Z,99.90
2023-03-24T05:54:13.089Z,99.90
2023-03-24T05:57:35.016Z,99.90
2023-03-24T06:00:56.643Z,99.90
2023-03-24T06:04:18.291Z,99.90
2023-03-24T06:07:41.658Z,99.90
2023-03-24T06:11:03.634Z,99.90
2023-03-24T06:14:25.221Z,99.90
2023-03-24T06:17:46.949Z,99.90
2023-03-24T06:21:08.560Z,99.90
2023-03-24T06:24:31.638Z,99.90
2023-03-24T06:27:53.219Z,99.90
2023-03-24T06:31:15.046Z,99.90
2023-03-24T06:34:36.818Z,99.90
2023-03-24T06:37:58.401Z,99.90
2023-03-24T06:41:21.394Z,99.90
2023-03-24T06:44:43.009Z,99.90
2023-03-24T06:48:04.953Z,99.90
2023-03-24T06:51:26.568Z,99.90
2023-03-24T06:54:48.170Z,99.90
2023-03-24T06:58:11.141Z,99.90
2023-03-24T07:01:32.830Z,99.90
2023-03-24T07:04:54.418Z,99.90
2023-03-24T07:08:36.722Z,99.90
2023-03-24T07:11:57.626Z,99.90
2023-03-24T07:15:20.565Z,99.90
2023-03-24T07:18:42.162Z,99.90
2023-03-24T07:22:03.885Z,99.90
2023-03-24T07:25:25.561Z,99.90
2023-03-24T07:28:47.205Z,99.90
2023-03-24T07:32:10.241Z,99.90
2023-03-24T07:35:31.885Z,99.90
2023-03-24T07:38:53.504Z,99.90
2023-03-24T07:42:15.123Z,99.90
2023-03-24T07:45:36.772Z,99.90
2023-03-24T07:49:08.532Z,99.90
2023-03-24T07:52:38.088Z,99.90
2023-03-24T07:55:59.714Z,99.90
2023-03-24T07:59:21.351Z,99.90
2023-03-24T08:02:43.403Z,99.90
2023-03-24T08:06:07.176Z,99.90
2023-03-24T08:09:28.788Z,99.90
2023-03-24T08:12:50.968Z,99.90
2023-03-24T08:16:12.671Z,99.90
2023-03-24T08:19:34.655Z,99.90
2023-03-24T08:22:59.109Z,99.90
2023-03-24T08:26:20.689Z,99.90
2023-03-24T08:29:42.298Z,99.90
2023-03-24T08:33:04.077Z,99.90
2023-03-24T08:36:25.767Z,99.90
2023-03-24T08:39:48.797Z,99.90
2023-03-24T08:43:13.393Z,99.90
2023-03-24T08:46:35.135Z,99.90
2023-03-24T08:49:57.122Z,99.90
2023-03-24T08:53:18.754Z,99.90
2023-03-24T08:56:41.714Z,99.90
2023-03-24T09:00:03.918Z,99.90
2023-03-24T09:03:25.638Z,99.90
2023-03-24T09:06:47.233Z,99.90
2023-03-24T09:10:10.254Z,99.90
2023-03-24T09:13:33.259Z,99.90
2023-03-24T09:16:55.071Z,99.90
2023-03-24T09:20:16.684Z,99.90
2023-03-24T09:23:38.358Z,99.90
2023-03-24T09:26:59.964Z,99.90
2023-03-24T09:30:22.980Z,99.90
2023-03-24T09:33:44.562Z,99.90
2023-03-24T09:37:06.188Z,99.90
2023-03-24T09:40:29.194Z,99.90
2023-03-24T09:43:52.164Z,99.90
2023-03-24T09:47:26.738Z,99.90
2023-03-24T09:50:51.760Z,99.90
2023-03-24T09:54:16.887Z,99.90
2023-03-24T09:57:39.526Z,99.90
2023-03-24T10:01:01.143Z,99.90
2023-03-24T10:04:24.930Z,99.90
2023-03-24T10:07:50.200Z,99.90
2023-03-24T10:11:15.746Z,99.90
2023-03-24T10:14:46.347Z,99.90
2023-03-24T10:18:20.824Z,99.90
2023-03-24T10:21:46.713Z,99.90
2023-03-24T10:25:14.656Z,99.90
2023-03-24T10:28:40.922Z,99.90
2023-03-24T10:32:03.475Z,99.90
2023-03-24T10:35:27.533Z,99.90
2023-03-24T10:38:50.929Z,99.90
2023-03-24T10:42:15.288Z,99.90
2023-03-24T10:45:38.517Z,99.90
2023-03-24T10:49:07.652Z,99.90
2023-03-24T10:52:37.797Z,99.90
2023-03-24T10:56:00.875Z,99.90
2023-03-24T10:59:24.407Z,99.90
2023-03-24T11:02:52.745Z,99.90
2023-03-24T11:06:16.647Z,99.90
2023-03-24T11:09:39.107Z,99.90
2023-03-24T11:13:02.466Z,99.90
2023-03-24T11:16:26.976Z,99.90
2023-03-24T11:19:52.311Z,99.90
2023-03-24T11:23:16.265Z,99.90
2023-03-24T11:26:39.075Z,99.90
2023-03-24T11:30:02.055Z,99.90
2023-03-24T11:33:35.802Z,99.90
2023-03-24T11:36:59.411Z,99.90
2023-03-24T11:40:22.420Z,99.90
2023-03-24T11:43:46.499Z,99.90
2023-03-24T11:47:10.811Z,99.90
2023-03-24T11:50:33.545Z,99.90
2023-03-24T11:53:56.252Z,99.90
2023-03-24T11:57:19.801Z,99.90
2023-03-24T12:00:43.515Z,99.90
2023-03-24T12:04:13.168Z,99.90
2023-03-24T12:07:42.216Z,99.90
2023-03-24T12:11:07.628Z,99.90
2023-03-24T12:14:34.152Z,99.90
2023-03-24T12:17:59.829Z,99.90
2023-03-24T12:21:37.405Z,99.90
2023-03-24T12:25:16.963Z,99.90
2023-03-24T12:28:45.784Z,99.90
2023-03-24T12:32:18.635Z,99.90
2023-03-24T12:35:46.602Z,99.90
2023-03-24T12:39:11.065Z,99.90
2023-03-24T12:42:35.973Z,99.90
2023-03-24T12:45:58.541Z,99.90
2023-03-24T12:49:26.153Z,99.90
2023-03-24T12:56:29.506Z,99.90
2023-03-24T12:59:53.262Z,99.90
2023-03-24T13:03:18.168Z,99.90
2023-03-24T13:06:43.623Z,99.90
2023-03-24T13:10:07.656Z,99.90
2023-03-24T13:13:32.628Z,99.90
2023-03-24T13:16:58.865Z,99.90
2023-03-24T13:20:24.022Z,99.90
2023-03-24T13:23:49.280Z,99.90
2023-03-24T13:27:14.423Z,99.90
2023-03-24T13:30:38.638Z,99.90
2023-03-24T13:34:00.625Z,99.90
2023-03-24T13:37:23.664Z,99.90
2023-03-24T13:40:46.760Z,99.90
2023-03-24T13:44:09.527Z,99.90
2023-03-24T13:47:46.030Z,99.90
2023-03-24T13:51:15.077Z,99.90
2023-03-24T13:54:37.058Z,99.90
2023-03-24T13:58:00.390Z,99.90
2023-03-24T14:01:32.911Z,99.90
2023-03-24T14:05:05.160Z,99.90
2023-03-24T14:08:50.402Z,99.90
2023-03-24T14:12:20.656Z,99.90
2023-03-24T14:15:44.472Z,99.90
2023-03-24T14:19:10.363Z,99.90
2023-03-24T14:22:32.876Z,99.90
2023-03-24T14:25:55.022Z,99.90
2023-03-24T14:29:31.556Z,99.90
2023-03-24T14:32:55.429Z,99.90
2023-03-24T14:36:29.013Z,99.90
2023-03-24T14:39:51.097Z,99.90
2023-03-24T14:43:17.074Z,99.90
2023-03-24T14:46:39.540Z,99.90
2023-03-24T14:50:10.185Z,99.90
2023-03-24T14:53:35.074Z,99.90
2023-03-24T14:56:57.795Z,99.90
2023-03-24T15:00:21.260Z,99.90
2023-03-24T15:03:44.513Z,99.90
2023-03-24T15:07:12.337Z,99.90
2023-03-24T15:10:37.411Z,99.90
2023-03-24T15:13:59.965Z,99.90
2023-03-24T15:17:22.533Z,99.90
2023-03-24T15:20:45.446Z,99.90
2023-03-24T15:24:21.925Z,99.90
2023-03-24T15:27:50.202Z,99.90
2023-03-24T15:31:12.397Z,99.90
2023-03-24T15:34:35.311Z,99.90
2023-03-24T15:37:57.104Z,99.90
2023-03-24T15:41:20.296Z,99.90
2023-03-24T15:44:43.539Z,99.90
2023-03-24T15:48:06.817Z,99.90
2023-03-24T15:51:47.437Z,99.90
2023-03-24T15:55:20.315Z,99.90
2023-03-24T15:58:52.404Z,99.90
2023-03-24T16:02:21.978Z,99.90
2023-03-24T16:05:45.917Z,99.90
2023-03-24T16:09:08.275Z,99.90
2023-03-24T16:12:30.233Z,99.90
2023-03-24T16:15:55.297Z,99.90
2023-03-24T16:19:19.393Z,99.90
2023-03-24T16:22:41.013Z,99.90
2023-03-24T16:26:03.843Z,99.90
2023-03-24T16:29:25.428Z,99.90
2023-03-24T16:32:47.062Z,99.90
2023-03-24T16:36:11.580Z,99.90
2023-03-24T16:39:33.187Z,99.90
2023-03-24T16:42:55.105Z,99.90
2023-03-24T16:46:18.542Z,99.90
2023-03-24T16:49:40.440Z,99.90
2023-03-24T16:53:05.784Z,99.90
2023-03-24T16:56:27.678Z,99.90
2023-03-24T16:59:49.281Z,99.90
2023-03-24T17:03:11.038Z,99.90
2023-03-24T17:06:32.916Z,99.90
2023-03-24T17:09:55.869Z,99.90
2023-03-24T17:13:18.853Z,99.90
2023-03-24T17:16:41.444Z,99.90
2023-03-24T17:20:05.160Z,99.90
2023-03-24T17:23:27.255Z,99.90
2023-03-24T17:26:50.243Z,99.90
2023-03-24T17:30:15.838Z,99.90
2023-03-24T17:33:37.582Z,99.90
2023-03-24T17:36:59.206Z,99.90
2023-03-24T17:40:22.181Z,99.90
2023-03-24T17:43:46.260Z,99.90
2023-03-24T17:47:08.090Z,99.90
2023-03-24T17:50:29.787Z,99.90
2023-03-24T17:53:51.416Z,99.90
2023-03-24T17:57:13.278Z,99.90
2023-03-24T18:00:36.256Z,99.90
2023-03-24T18:03:58.184Z,99.90
2023-03-24T18:07:19.989Z,99.90
2023-03-24T18:10:41.707Z,99.90
2023-03-24T18:14:03.373Z,99.90
2023-03-24T18:17:26.358Z,99.90
2023-03-24T18:20:48.191Z,99.90
2023-03-24T18:24:09.979Z,99.90
2023-03-24T18:27:31.601Z,99.90
2023-03-24T18:30:53.202Z,99.90
2023-03-24T18:34:16.457Z,99.90
2023-03-24T18:37:43.689Z,99.90
2023-03-24T18:41:06.705Z,99.90
2023-03-24T18:44:28.459Z,99.90
2023-03-24T18:47:50.076Z,99.90
2023-03-24T18:51:13.500Z,99.90
2023-03-24T18:54:35.077Z,99.90
2023-03-24T18:57:56.671Z,99.90
2023-03-24T19:01:18.842Z,99.90
2023-03-24T19:04:42.292Z,99.90
2023-03-24T19:08:06.428Z,99.90
2023-03-24T19:11:28.010Z,99.90
2023-03-24T19:14:49.683Z,99.90
2023-03-24T19:18:11.390Z,99.90
2023-03-24T19:21:33.731Z,99.90
2023-03-24T19:24:57.953Z,99.90
2023-03-24T19:28:19.603Z,99.90
2023-03-24T19:31:47.326Z,99.90
2023-03-24T19:35:15.305Z,99.90
2023-03-24T19:38:37.892Z,99.90
2023-03-24T19:42:01.829Z,99.90
2023-03-24T19:45:24.307Z,99.90
2023-03-24T19:48:47.612Z,99.90
2023-03-24T19:52:09.225Z,99.90
2023-03-24T19:55:31.476Z,99.90
2023-03-24T19:58:54.506Z,99.90
2023-03-24T20:02:16.697Z,99.90
2023-03-24T20:05:38.431Z,99.90
2023-03-24T20:09:00.044Z,99.90
2023-03-24T20:12:21.668Z,99.90
2023-03-24T20:15:46.740Z,99.90
2023-03-24T20:19:08.424Z,99.90
2023-03-24T20:22:30.031Z,99.90
2023-03-24T20:25:51.987Z,99.90
2023-03-24T20:29:14.233Z,99.90
2023-03-24T20:32:37.228Z,99.90
2023-03-24T20:35:59.383Z,99.90
2023-03-24T20:39:22.983Z,99.90
2023-03-24T20:42:45.561Z,99.90
2023-03-24T20:46:08.364Z,99.90
2023-03-24T20:49:31.812Z,99.90
2023-03-24T20:52:53.470Z,99.90
2023-03-24T20:56:15.371Z,99.90
2023-03-24T20:59:37.064Z,99.90
2023-03-24T21:02:58.786Z,99.90
2023-03-24T21:06:21.812Z,99.90
2023-03-24T21:09:43.564Z,99.90
2023-03-24T21:13:05.287Z,99.90
2023-03-24T21:16:28.070Z,99.90
2023-03-24T21:19:49.742Z,99.90
2023-03-24T21:23:16.367Z,99.90
2023-03-24T21:26:39.011Z,99.90
2023-03-24T21:30:02.113Z,99.90
2023-03-24T21:33:26.076Z,99.90
2023-03-24T21:36:47.722Z,99.90
2023-03-24T21:40:11.844Z,99.90
2023-03-24T21:43:33.508Z,99.90
2023-03-24T21:46:55.247Z,99.90
2023-03-24T21:50:18.113Z,99.90
2023-03-24T21:53:39.763Z,99.90
2023-03-24T21:57:03.056Z,99.90
2023-03-24T22:00:26.201Z,99.90
2023-03-24T22:03:52.526Z,99.90
2023-03-24T22:07:14.231Z,99.90
2023-03-24T22:10:36.401Z,99.90
2023-03-24T22:13:59.355Z,99.90
2023-03-24T22:17:20.997Z,99.90
2023-03-24T22:20:42.586Z,99.90
2023-03-24T22:24:04.545Z,99.90
2023-03-24T22:27:26.149Z,99.90
2023-03-24T22:30:49.131Z,99.90
2023-03-24T22:34:10.968Z,99.90
2023-03-24T22:37:32.638Z,99.90
2023-03-24T22:40:55.857Z,99.90
2023-03-24T22:44:17.481Z,99.90
2023-03-24T22:47:40.465Z,99.90
2023-03-24T22:51:02.121Z,99.90
2023-03-24T22:54:23.725Z,99.90
2023-03-24T22:57:45.304Z,99.90
2023-03-24T23:01:07.430Z,99.90
2023-03-24T23:04:30.480Z,99.90
2023-03-24T23:07:52.139Z,99.90
2023-03-24T23:11:13.718Z,99.90
2023-03-24T23:14:35.306Z,99.90
2023-03-24T23:17:56.904Z,99.90
2023-03-24T23:21:19.929Z,99.90
2023-03-24T23:24:41.577Z,99.90
2023-03-24T23:28:03.176Z,99.90
2023-03-24T23:31:25.745Z,99.90
2023-03-24T23:34:47.368Z,99.90
2023-03-24T23:38:10.308Z,99.90
2023-03-24T23:41:31.913Z,99.90
2023-03-24T23:44:53.580Z,99.90
2023-03-24T23:48:15.194Z,99.90
2023-03-24T23:51:36.812Z,99.90
2023-03-24T23:54:59.810Z,99.90
2023-03-24T23:58:21.389Z,99.90
